createdAt,value
2023-04-02T00:02:59.576Z,101412.50
2023-04-02T00:08:10.287Z,101406.34
2023-04-02T00:13:12.656Z,101410.66
2023-04-02T00:18:22.298Z,101414.69
2023-04-02T00:23:25.005Z,101418.13
2023-04-02T00:28:27.510Z,101431.13
2023-04-02T00:33:32.224Z,101433.25
2023-04-02T00:38:36.092Z,101422.38
2023-04-02T00:43:39.938Z,101435.63
2023-04-02T00:48:51.652Z,101415.03
2023-04-02T00:53:57.880Z,101418.50
2023-04-02T00:59:01.185Z,101416.78
2023-04-02T01:04:06.010Z,101415.13
2023-04-02T01:09:14.653Z,101402.09
2023-04-02T01:14:36.958Z,101403.91
2023-04-02T01:20:07.798Z,101403.53
2023-04-02T01:25:18.704Z,101409.78
2023-04-02T01:30:22.294Z,101401.09
2023-04-02T01:35:28.261Z,101409.38
2023-04-02T01:40:33.948Z,101408.72
2023-04-02T01:45:37.030Z,101396.34
2023-04-02T01:50:41.975Z,101399.56
2023-04-02T01:55:59.861Z,101400.22
2023-04-02T02:01:24.811Z,101397.34
2023-04-02T02:06:28.835Z,101392.72
2023-04-02T02:11:33.889Z,101389.22
2023-04-02T02:16:42.163Z,101385.41
2023-04-02T02:21:52.447Z,101385.06
2023-04-02T02:27:05.254Z,101389.38
2023-04-02T02:32:12.129Z,101388.00
2023-04-02T02:37:24.080Z,101390.03
2023-04-02T02:42:39.160Z,101388.38
2023-04-02T02:47:44.270Z,101395.16
2023-04-02T02:52:53.620Z,101391.66
2023-04-02T02:58:27.806Z,101397.94
2023-04-02T03:03:41.189Z,101395.91
2023-04-02T03:08:54.775Z,101388.41
2023-04-02T03:14:36.951Z,101395.25
2023-04-02T03:19:53.149Z,101392.91
2023-04-02T03:25:00.967Z,101394.91
2023-04-02T03:30:23.634Z,101395.25
2023-04-02T03:35:53.929Z,101388.88
2023-04-02T03:41:47.078Z,101389.13
2023-04-02T03:47:01.843Z,101386.75
2023-04-02T03:52:12.313Z,101385.72
2023-04-02T03:57:27.415Z,101390.91
2023-04-02T04:02:53.447Z,101387.81
2023-04-02T04:08:03.803Z,101383.19
2023-04-02T04:13:12.649Z,101382.22
2023-04-02T04:18:40.266Z,101384.97
2023-04-02T04:23:51.878Z,101376.81
2023-04-02T04:29:14.213Z,101396.34
2023-04-02T04:34:42.537Z,101392.88
2023-04-02T04:40:03.309Z,101388.75
2023-04-02T04:45:30.286Z,101393.91
2023-04-02T04:50:39.093Z,101389.97
2023-04-02T04:55:49.209Z,101393.44
2023-04-02T05:01:00.504Z,101394.38
2023-04-02T05:06:13.209Z,101393.88
2023-04-02T05:11:32.422Z,101390.13
2023-04-02T05:16:52.075Z,101389.88
2023-04-02T05:22:19.504Z,101388.00
2023-04-02T05:27:47.347Z,101387.16
2023-04-02T05:33:18.162Z,101394.31
2023-04-02T05:38:28.851Z,101389.53
2023-04-02T05:43:35.119Z,101388.81
2023-04-02T05:48:43.646Z,101405.22
2023-04-02T05:53:59.851Z,101393.53
2023-04-02T05:59:16.440Z,101405.50
2023-04-02T06:04:34.609Z,101403.34
2023-04-02T06:09:44.851Z,101390.59
2023-04-02T06:14:48.216Z,101390.41
2023-04-02T06:19:56.489Z,101381.69
2023-04-02T06:25:06.402Z,101386.94
2023-04-02T06:30:26.512Z,101374.31
2023-04-02T06:35:29.603Z,101386.09
2023-04-02T06:40:52.808Z,101384.16
2023-04-02T06:46:51.803Z,101379.75
2023-04-02T06:51:56.816Z,101373.06
2023-04-02T06:57:00.884Z,101365.31
2023-04-02T07:02:40.140Z,101362.59
2023-04-02T07:07:46.290Z,101362.59
2023-04-02T07:12:49.938Z,101353.75
2023-04-02T07:17:53.581Z,101358.66
2023-04-02T07:22:57.333Z,101348.13
2023-04-02T07:27:59.955Z,101358.78
2023-04-02T07:33:02.524Z,101338.63
2023-04-02T07:38:04.995Z,101336.25
2023-04-02T07:43:07.817Z,101333.72
2023-04-02T07:48:14.340Z,101327.31
2023-04-02T07:53:32.517Z,101324.00
2023-04-02T07:58:34.990Z,101316.13
2023-04-02T08:03:37.654Z,101299.72
2023-04-02T08:08:40.700Z,101290.84
2023-04-02T08:13:43.563Z,101285.22
2023-04-02T08:18:47.947Z,101285.81
2023-04-02T08:23:50.762Z,101275.72
2023-04-02T08:28:53.315Z,101267.44
2023-04-02T08:33:57.090Z,101282.22
2023-04-02T08:38:59.733Z,101265.97
2023-04-02T08:44:32.620Z,101271.47
2023-04-02T08:50:16.624Z,101257.69
2023-04-02T08:55:26.270Z,101236.66
2023-04-02T09:00:49.538Z,101226.13
2023-04-02T09:05:52.961Z,101228.53
2023-04-02T09:11:08.828Z,101224.75
2023-04-02T09:16:15.025Z,101205.13
2023-04-02T09:21:32.543Z,101230.09
2023-04-02T09:26:35.340Z,101219.03
2023-04-02T09:31:45.402Z,101223.09
2023-04-02T09:36:48.193Z,101214.94
2023-04-02T09:42:02.814Z,101235.69
2023-04-02T09:47:25.380Z,101223.09
2023-04-02T09:52:30.095Z,101211.91
2023-04-02T09:57:33.665Z,101217.31
2023-04-02T10:02:37.101Z,101203.16
2023-04-02T10:07:46.170Z,101201.34
2023-04-02T10:13:00.425Z,101213.72
2023-04-02T10:18:35.302Z,101189.09
2023-04-02T10:23:37.769Z,101214.06
2023-04-02T10:29:28.095Z,101196.22
2023-04-02T10:34:54.541Z,101196.91
2023-04-02T10:40:34.296Z,101184.75
2023-04-02T10:46:02.555Z,101177.84
2023-04-02T10:51:21.950Z,101166.16
2023-04-02T10:56:26.574Z,101165.78
2023-04-02T11:01:31.296Z,101167.09
2023-04-02T11:06:43.563Z,101169.63
2023-04-02T11:11:51.647Z,101160.22
2023-04-02T11:16:58.813Z,101148.59
2023-04-02T11:22:14.160Z,101151.19
2023-04-02T11:27:33.886Z,101153.84
2023-04-02T11:32:45.467Z,101154.19
2023-04-02T11:43:32.926Z,101145.25
2023-04-02T11:48:36.804Z,101152.88
2023-04-02T11:53:43.229Z,101156.81
2023-04-02T11:59:00.648Z,101153.06
2023-04-02T12:04:24.038Z,101154.38
2023-04-02T12:09:28.248Z,101159.88
2023-04-02T12:14:38.656Z,101155.97
2023-04-02T12:19:41.581Z,101148.13
2023-04-02T12:24:48.595Z,101145.69
2023-04-02T12:29:52.536Z,101141.50
2023-04-02T12:34:57.880Z,101145.91
2023-04-02T12:40:07.498Z,101147.22
2023-04-02T12:45:29.819Z,101133.97
2023-04-02T12:50:34.228Z,101129.97
2023-04-02T12:55:37.201Z,101131.50
2023-04-02T13:00:40.191Z,101125.53
2023-04-02T13:05:51.171Z,101121.53
2023-04-02T13:11:02.170Z,101118.31
2023-04-02T13:16:16.143Z,101117.41
2023-04-02T13:21:21.502Z,101117.88
2023-04-02T13:26:27.385Z,101109.16
2023-04-02T13:31:31.728Z,101111.63
2023-04-02T13:36:34.424Z,101105.91
2023-04-02T13:41:48.958Z,101126.22
2023-04-02T13:46:52.788Z,101120.38
2023-04-02T13:52:00.576Z,101126.06
2023-04-02T13:57:03.559Z,101126.81
2023-04-02T14:02:17.414Z,101128.00
2023-04-02T14:08:04.387Z,101136.03
2023-04-02T14:13:33.854Z,101130.84
2023-04-02T14:18:55.105Z,101130.19
2023-04-02T14:24:09.768Z,101125.19
2023-04-02T14:29:16.687Z,101131.34
2023-04-02T14:34:58.407Z,101136.84
2023-04-02T14:40:23.920Z,101135.53
2023-04-02T14:45:58.188Z,101144.00
2023-04-02T14:51:17.822Z,101142.91
2023-04-02T14:56:22.226Z,101139.16
2023-04-02T15:01:34.552Z,101142.44
2023-04-02T15:06:52.801Z,101140.84
2023-04-02T15:12:03.897Z,101136.94
2023-04-02T15:22:43.933Z,101138.66
2023-04-02T15:27:52.874Z,101132.47
2023-04-02T15:33:16.831Z,101141.97
2023-04-02T15:38:42.923Z,101141.34
2023-04-02T15:43:57.811Z,101141.91
2023-04-02T15:49:09.416Z,101132.53
2023-04-02T15:54:27.956Z,101131.44
2023-04-02T15:59:54.640Z,101144.69
2023-04-02T16:05:18.973Z,101131.38
2023-04-02T16:10:41.850Z,101145.59
2023-04-02T16:15:56.302Z,101151.00
2023-04-02T16:21:03.203Z,101151.19
2023-04-02T16:26:39.626Z,101150.63
2023-04-02T16:31:55.622Z,101149.03
2023-04-02T16:37:11.046Z,101149.06
2023-04-02T16:42:43.562Z,101139.84
2023-04-02T16:48:00.480Z,101150.75
2023-04-02T16:53:18.543Z,101141.50
2023-04-02T16:58:49.308Z,101147.09
2023-04-02T17:04:15.027Z,101147.13
2023-04-02T17:09:39.189Z,101143.63
2023-04-02T17:14:57.868Z,101145.50
2023-04-02T17:20:02.103Z,101155.16
2023-04-02T17:25:07.886Z,101137.28
2023-04-02T17:30:39.458Z,101145.91
2023-04-02T17:35:51.189Z,101144.28
2023-04-02T17:41:05.981Z,101137.69
2023-04-02T17:46:17.929Z,101135.81
2023-04-02T17:51:25.789Z,101132.53
2023-04-02T17:56:39.351Z,101134.78
2023-04-02T18:01:55.466Z,101147.88
2023-04-02T18:07:39.688Z,101126.13
2023-04-02T18:12:58.382Z,101126.13
2023-04-02T18:18:19.291Z,101133.47
2023-04-02T18:23:56.761Z,101128.97
2023-04-02T18:29:21.026Z,101139.44
2023-04-02T18:34:40.415Z,101141.47
2023-04-02T18:40:03.771Z,101135.13
2023-04-02T18:45:14.860Z,101136.16
2023-04-02T18:50:29.677Z,101134.69
2023-04-02T18:55:32.633Z,101119.50
2023-04-02T19:00:39.387Z,101116.03
2023-04-02T19:05:49.802Z,101113.75
2023-04-02T19:10:58.183Z,101112.97
2023-04-02T19:16:31.537Z,101112.13
2023-04-02T19:21:40.263Z,101115.19
2023-04-02T19:26:55.482Z,101108.84
2023-04-02T19:32:07.087Z,101111.13
2023-04-02T19:37:36.890Z,101115.88
2023-04-02T19:42:51.815Z,101111.75
2023-04-02T19:47:55.717Z,101117.09
2023-04-02T19:52:58.726Z,101102.72
2023-04-02T19:58:17.343Z,101103.53
2023-04-02T20:03:22.530Z,101096.97
2023-04-02T20:08:25.159Z,101092.44
2023-04-02T20:13:28.076Z,101067.59
2023-04-02T20:18:32.744Z,101093.19
2023-04-02T20:23:36.555Z,101089.50
2023-04-02T20:28:39.497Z,101091.28
2023-04-02T20:33:42.783Z,101079.91
2023-04-02T20:38:45.966Z,101080.44
2023-04-02T20:43:50.131Z,101077.72
2023-04-02T20:48:53.021Z,101077.63
2023-04-02T20:53:55.878Z,101097.19
2023-04-02T20:58:58.430Z,101085.16
2023-04-02T21:04:04.212Z,101091.44
2023-04-02T21:09:09.548Z,101089.94
2023-04-02T21:14:12.499Z,101077.91
2023-04-02T21:19:15.066Z,101085.66
2023-04-02T21:24:17.537Z,101083.91
2023-04-02T21:29:20.392Z,101087.91
2023-04-02T21:34:23.016Z,101084.56
2023-04-02T21:39:26.110Z,101085.22
2023-04-02T21:44:28.779Z,101094.59
2023-04-02T21:49:34.414Z,101088.94
2023-04-02T21:54:36.831Z,101088.88
2023-04-02T21:59:39.215Z,101085.41
2023-04-02T22:04:42.209Z,101063.34
2023-04-02T22:09:44.733Z,101073.72
2023-04-02T22:14:47.724Z,101072.72
2023-04-02T22:19:50.517Z,101079.22
2023-04-02T22:24:52.946Z,101074.47
2023-04-02T22:29:55.598Z,101070.78
2023-04-02T22:35:00.461Z,101073.66
2023-04-02T22:40:03.107Z,101066.88
2023-04-02T22:45:06.750Z,101072.19
2023-04-02T22:50:09.692Z,101058.06
2023-04-02T22:55:18.245Z,101070.53
2023-04-02T23:00:21.201Z,101059.81
2023-04-02T23:05:23.834Z,101053.06
2023-04-02T23:10:28.841Z,101066.16
2023-04-02T23:15:33.094Z,101054.69
2023-04-02T23:20:35.835Z,101056.97
2023-04-02T23:25:38.634Z,101061.75
2023-04-02T23:30:44.702Z,101064.22
2023-04-02T23:35:47.419Z,101069.16
2023-04-02T23:40:49.877Z,101066.94
2023-04-02T23:45:52.451Z,101058.34
2023-04-02T23:50:54.979Z,101060.97
2023-04-02T23:55:57.900Z,101061.38
